sensor_id;sensor_type;location;lat;lon;timestamp;temperature;humidity
75190;HTU21D;69198;44.694;37.790;2023-05-07T00:00:03;18.43;71.87
75190;HTU21D;69198;44.694;37.790;2023-05-07T00:01:06;18.42;71.90
75190;HTU21D;69198;44.694;37.790;2023-05-07T00:02:07;18.46;71.95
75190;HTU21D;69198;44.694;37.790;2023-05-07T00:03:08;18.41;72.00
75190;HTU21D;69198;44.694;37.790;2023-05-07T00:04:09;18.40;72.01
75190;HTU21D;69198;44.694;37.790;2023-05-07T00:05:10;18.39;71.97
75190;HTU21D;69198;44.694;37.790;2023-05-07T00:06:11;18.38;72.03
75190;HTU21D;69198;44.694;37.790;2023-05-07T00:07:13;18.34;72.16
75190;HTU21D;69198;44.694;37.790;2023-05-07T00:08:14;18.35;72.07
75190;HTU21D;69198;44.694;37.790;2023-05-07T00:09:15;18.34;72.10
75190;HTU21D;69198;44.694;37.790;2023-05-07T00:10:17;18.33;72.11
75190;HTU21D;69198;44.694;37.790;2023-05-07T00:11:18;18.32;72.09
75190;HTU21D;69198;44.694;37.790;2023-05-07T00:12:19;18.32;72.06
75190;HTU21D;69198;44.694;37.790;2023-05-07T00:13:19;18.32;72.07
75190;HTU21D;69198;44.694;37.790;2023-05-07T00:14:20;18.29;72.12
75190;HTU21D;69198;44.694;37.790;2023-05-07T00:15:21;18.28;72.14
75190;HTU21D;69198;44.694;37.790;2023-05-07T00:16:22;18.29;72.14
75190;HTU21D;69198;44.694;37.790;2023-05-07T00:17:23;18.28;72.13
75190;HTU21D;69198;44.694;37.790;2023-05-07T00:18:24;18.28;72.13
75190;HTU21D;69198;44.694;37.790;2023-05-07T00:19:25;18.26;72.17
75190;HTU21D;69198;44.694;37.790;2023-05-07T00:20:26;18.24;72.23
75190;HTU21D;69198;44.694;37.790;2023-05-07T00:21:27;18.21;72.22
75190;HTU21D;69198;44.694;37.790;2023-05-07T00:22:28;18.22;72.19
75190;HTU21D;69198;44.694;37.790;2023-05-07T00:23:30;18.21;72.19
75190;HTU21D;69198;44.694;37.790;2023-05-07T00:24:31;18.19;72.17
75190;HTU21D;69198;44.694;37.790;2023-05-07T00:25:32;18.21;72.09
75190;HTU21D;69198;44.694;37.790;2023-05-07T00:26:33;18.21;72.00
75190;HTU21D;69198;44.694;37.790;2023-05-07T00:27:34;18.20;72.06
75190;HTU21D;69198;44.694;37.790;2023-05-07T00:28:35;18.17;72.15
75190;HTU21D;69198;44.694;37.790;2023-05-07T00:29:36;18.17;72.06
75190;HTU21D;69198;44.694;37.790;2023-05-07T00:30:37;18.14;72.13
75190;HTU21D;69198;44.694;37.790;2023-05-07T00:31:38;18.13;72.15
75190;HTU21D;69198;44.694;37.790;2023-05-07T00:32:40;18.11;72.17
75190;HTU21D;69198;44.694;37.790;2023-05-07T00:33:41;18.09;72.17
75190;HTU21D;69198;44.694;37.790;2023-05-07T00:34:43;18.10;72.16
75190;HTU21D;69198;44.694;37.790;2023-05-07T00:35:44;18.07;72.17
75190;HTU21D;69198;44.694;37.790;2023-05-07T00:36:45;18.09;72.09
75190;HTU21D;69198;44.694;37.790;2023-05-07T00:37:46;18.08;72.09
75190;HTU21D;69198;44.694;37.790;2023-05-07T00:38:49;18.05;72.21
75190;HTU21D;69198;44.694;37.790;2023-05-07T00:39:50;18.05;72.26
75190;HTU21D;69198;44.694;37.790;2023-05-07T00:40:51;18.04;72.26
75190;HTU21D;69198;44.694;37.790;2023-05-07T00:41:52;18.03;72.38
75190;HTU21D;69198;44.694;37.790;2023-05-07T00:42:53;18.04;72.34
75190;HTU21D;69198;44.694;37.790;2023-05-07T00:43:58;18.03;72.32
75190;HTU21D;69198;44.694;37.790;2023-05-07T00:44:59;18.04;72.28
75190;HTU21D;69198;44.694;37.790;2023-05-07T00:46:00;18.04;72.30
75190;HTU21D;69198;44.694;37.790;2023-05-07T00:47:03;18.02;72.35
75190;HTU21D;69198;44.694;37.790;2023-05-07T00:48:05;18.04;72.28
75190;HTU21D;69198;44.694;37.790;2023-05-07T00:49:06;18.10;71.93
75190;HTU21D;69198;44.694;37.790;2023-05-07T00:50:08;18.11;71.71
75190;HTU21D;69198;44.694;37.790;2023-05-07T00:51:11;18.20;71.20
75190;HTU21D;69198;44.694;37.790;2023-05-07T00:52:16;18.22;71.26
75190;HTU21D;69198;44.694;37.790;2023-05-07T00:53:17;18.24;71.09
75190;HTU21D;69198;44.694;37.790;2023-05-07T00:54:18;18.23;71.10
75190;HTU21D;69198;44.694;37.790;2023-05-07T00:55:23;18.25;71.22
75190;HTU21D;69198;44.694;37.790;2023-05-07T00:56:24;18.26;70.97
75190;HTU21D;69198;44.694;37.790;2023-05-07T00:57:25;18.28;71.06
75190;HTU21D;69198;44.694;37.790;2023-05-07T00:58:26;18.27;71.03
75190;HTU21D;69198;44.694;37.790;2023-05-07T00:59:28;18.23;71.24
75190;HTU21D;69198;44.694;37.790;2023-05-07T01:00:29;18.19;71.16
75190;HTU21D;69198;44.694;37.790;2023-05-07T01:01:31;18.17;71.05
75190;HTU21D;69198;44.694;37.790;2023-05-07T01:02:32;18.15;71.07
75190;HTU21D;69198;44.694;37.790;2023-05-07T01:03:33;18.14;71.10
75190;HTU21D;69198;44.694;37.790;2023-05-07T01:04:34;18.12;71.17
75190;HTU21D;69198;44.694;37.790;2023-05-07T01:05:35;18.08;71.27
75190;HTU21D;69198;44.694;37.790;2023-05-07T01:06:37;18.07;71.35
75190;HTU21D;69198;44.694;37.790;2023-05-07T01:07:42;18.04;71.45
75190;HTU21D;69198;44.694;37.790;2023-05-07T01:08:44;18.03;71.52
75190;HTU21D;69198;44.694;37.790;2023-05-07T01:09:45;17.98;71.58
75190;HTU21D;69198;44.694;37.790;2023-05-07T01:10:46;17.96;71.62
75190;HTU21D;69198;44.694;37.790;2023-05-07T01:11:49;17.91;71.74
75190;HTU21D;69198;44.694;37.790;2023-05-07T01:12:52;17.85;71.80
75190;HTU21D;69198;44.694;37.790;2023-05-07T01:13:54;17.80;71.93
75190;HTU21D;69198;44.694;37.790;2023-05-07T01:14:56;17.75;72.14
75190;HTU21D;69198;44.694;37.790;2023-05-07T01:15:57;17.73;72.25
75190;HTU21D;69198;44.694;37.790;2023-05-07T01:16:58;17.67;72.35
75190;HTU21D;69198;44.694;37.790;2023-05-07T01:18:00;17.64;72.46
75190;HTU21D;69198;44.694;37.790;2023-05-07T01:19:07;17.58;72.77
75190;HTU21D;69198;44.694;37.790;2023-05-07T01:20:09;17.53;72.84
75190;HTU21D;69198;44.694;37.790;2023-05-07T01:21:17;17.50;72.90
75190;HTU21D;69198;44.694;37.790;2023-05-07T01:22:35;17.52;72.48
75190;HTU21D;69198;44.694;37.790;2023-05-07T01:23:39;17.49;72.43
75190;HTU21D;69198;44.694;37.790;2023-05-07T01:24:41;17.45;72.50
75190;HTU21D;69198;44.694;37.790;2023-05-07T01:25:43;17.44;72.60
75190;HTU21D;69198;44.694;37.790;2023-05-07T01:26:45;17.41;72.71
75190;HTU21D;69198;44.694;37.790;2023-05-07T01:27:49;17.36;72.95
75190;HTU21D;69198;44.694;37.790;2023-05-07T01:28:50;17.36;72.88
75190;HTU21D;69198;44.694;37.790;2023-05-07T01:29:51;17.36;72.85
75190;HTU21D;69198;44.694;37.790;2023-05-07T01:30:54;17.32;72.87
75190;HTU21D;69198;44.694;37.790;2023-05-07T01:31:58;17.29;72.80
75190;HTU21D;69198;44.694;37.790;2023-05-07T01:33:04;17.29;73.06
75190;HTU21D;69198;44.694;37.790;2023-05-07T01:34:08;17.23;73.40
75190;HTU21D;69198;44.694;37.790;2023-05-07T01:35:12;17.21;73.38
75190;HTU21D;69198;44.694;37.790;2023-05-07T01:36:14;17.20;73.14
75190;HTU21D;69198;44.694;37.790;2023-05-07T01:37:15;17.18;73.29
75190;HTU21D;69198;44.694;37.790;2023-05-07T01:38:18;17.15;73.41
75190;HTU21D;69198;44.694;37.790;2023-05-07T01:39:19;17.06;73.50
75190;HTU21D;69198;44.694;37.790;2023-05-07T01:40:21;16.91;74.07
75190;HTU21D;69198;44.694;37.790;2023-05-07T01:41:22;16.73;74.79
75190;HTU21D;69198;44.694;37.790;2023-05-07T01:42:23;16.59;75.73
75190;HTU21D;69198;44.694;37.790;2023-05-07T01:43:25;16.41;76.72
75190;HTU21D;69198;44.694;37.790;2023-05-07T01:44:26;16.27;77.31
75190;HTU21D;69198;44.694;37.790;2023-05-07T01:45:28;16.12;77.81
75190;HTU21D;69198;44.694;37.790;2023-05-07T01:46:29;15.99;78.36
75190;HTU21D;69198;44.694;37.790;2023-05-07T01:47:32;15.91;78.83
75190;HTU21D;69198;44.694;37.790;2023-05-07T01:48:34;15.84;79.56
75190;HTU21D;69198;44.694;37.790;2023-05-07T01:49:36;15.75;79.95
75190;HTU21D;69198;44.694;37.790;2023-05-07T01:50:37;15.67;80.46
75190;HTU21D;69198;44.694;37.790;2023-05-07T01:51:39;15.59;81.11
75190;HTU21D;69198;44.694;37.790;2023-05-07T01:52:41;15.52;81.47
75190;HTU21D;69198;44.694;37.790;2023-05-07T01:53:42;15.47;81.63
75190;HTU21D;69198;44.694;37.790;2023-05-07T01:54:44;15.42;81.61
75190;HTU21D;69198;44.694;37.790;2023-05-07T01:55:45;15.31;81.84
75190;HTU21D;69198;44.694;37.790;2023-05-07T01:56:47;15.29;82.26
75190;HTU21D;69198;44.694;37.790;2023-05-07T01:57:49;15.26;82.50
75190;HTU21D;69198;44.694;37.790;2023-05-07T01:58:51;15.28;82.51
75190;HTU21D;69198;44.694;37.790;2023-05-07T01:59:52;15.28;82.58
75190;HTU21D;69198;44.694;37.790;2023-05-07T02:00:53;15.28;82.61
75190;HTU21D;69198;44.694;37.790;2023-05-07T02:01:54;15.27;82.66
75190;HTU21D;69198;44.694;37.790;2023-05-07T02:02:55;15.27;82.74
75190;HTU21D;69198;44.694;37.790;2023-05-07T02:04:11;15.27;82.74
75190;HTU21D;69198;44.694;37.790;2023-05-07T02:05:13;15.26;82.94
75190;HTU21D;69198;44.694;37.790;2023-05-07T02:06:15;15.21;83.10
75190;HTU21D;69198;44.694;37.790;2023-05-07T02:07:16;15.23;83.22
75190;HTU21D;69198;44.694;37.790;2023-05-07T02:08:17;15.22;83.23
75190;HTU21D;69198;44.694;37.790;2023-05-07T02:09:18;15.23;83.26
75190;HTU21D;69198;44.694;37.790;2023-05-07T02:10:20;15.26;83.04
75190;HTU21D;69198;44.694;37.790;2023-05-07T02:11:21;15.28;82.71
75190;HTU21D;69198;44.694;37.790;2023-05-07T02:12:22;15.30;82.45
75190;HTU21D;69198;44.694;37.790;2023-05-07T02:13:25;15.31;82.36
75190;HTU21D;69198;44.694;37.790;2023-05-07T02:14:26;15.33;82.24
75190;HTU21D;69198;44.694;37.790;2023-05-07T02:15:27;15.34;82.08
75190;HTU21D;69198;44.694;37.790;2023-05-07T02:16:29;15.37;81.89
75190;HTU21D;69198;44.694;37.790;2023-05-07T02:17:30;15.37;81.80
75190;HTU21D;69198;44.694;37.790;2023-05-07T02:18:32;15.39;81.68
75190;HTU21D;69198;44.694;37.790;2023-05-07T02:19:34;15.36;81.75
75190;HTU21D;69198;44.694;37.790;2023-05-07T02:20:35;15.34;81.70
75190;HTU21D;69198;44.694;37.790;2023-05-07T02:21:37;15.33;81.46
75190;HTU21D;69198;44.694;37.790;2023-05-07T02:22:38;15.30;81.43
75190;HTU21D;69198;44.694;37.790;2023-05-07T02:23:38;15.30;81.36
75190;HTU21D;69198;44.694;37.790;2023-05-07T02:24:40;15.23;81.41
75190;HTU21D;69198;44.694;37.790;2023-05-07T02:25:41;15.18;81.46
75190;HTU21D;69198;44.694;37.790;2023-05-07T02:26:42;15.14;81.62
75190;HTU21D;69198;44.694;37.790;2023-05-07T02:27:43;15.11;81.94
75190;HTU21D;69198;44.694;37.790;2023-05-07T02:28:45;15.11;82.25
75190;HTU21D;69198;44.694;37.790;2023-05-07T02:29:46;15.07;82.40
75190;HTU21D;69198;44.694;37.790;2023-05-07T02:30:47;15.02;82.55
75190;HTU21D;69198;44.694;37.790;2023-05-07T02:31:48;14.95;82.93
75190;HTU21D;69198;44.694;37.790;2023-05-07T02:32:53;14.94;83.16
75190;HTU21D;69198;44.694;37.790;2023-05-07T02:33:54;14.89;83.42
75190;HTU21D;69198;44.694;37.790;2023-05-07T02:34:55;14.85;83.78
75190;HTU21D;69198;44.694;37.790;2023-05-07T02:35:56;14.79;84.10
75190;HTU21D;69198;44.694;37.790;2023-05-07T02:36:57;14.72;84.73
75190;HTU21D;69198;44.694;37.790;2023-05-07T02:38:00;14.71;84.77
75190;HTU21D;69198;44.694;37.790;2023-05-07T02:39:01;14.69;84.74
75190;HTU21D;69198;44.694;37.790;2023-05-07T02:40:03;14.66;84.46
75190;HTU21D;69198;44.694;37.790;2023-05-07T02:41:05;14.57;84.61
75190;HTU21D;69198;44.694;37.790;2023-05-07T02:42:06;14.55;84.75
75190;HTU21D;69198;44.694;37.790;2023-05-07T02:43:08;14.54;84.96
75190;HTU21D;69198;44.694;37.790;2023-05-07T02:44:09;14.54;85.13
75190;HTU21D;69198;44.694;37.790;2023-05-07T02:45:11;14.49;85.27
75190;HTU21D;69198;44.694;37.790;2023-05-07T02:46:13;14.50;85.35
75190;HTU21D;69198;44.694;37.790;2023-05-07T02:47:18;14.53;85.31
75190;HTU21D;69198;44.694;37.790;2023-05-07T02:48:20;14.51;85.29
75190;HTU21D;69198;44.694;37.790;2023-05-07T02:49:21;14.51;85.29
75190;HTU21D;69198;44.694;37.790;2023-05-07T02:50:22;14.52;85.29
75190;HTU21D;69198;44.694;37.790;2023-05-07T02:51:23;14.57;85.24
75190;HTU21D;69198;44.694;37.790;2023-05-07T02:52:25;14.59;85.20
75190;HTU21D;69198;44.694;37.790;2023-05-07T02:53:26;14.58;85.17
75190;HTU21D;69198;44.694;37.790;2023-05-07T02:54:28;14.58;85.21
75190;HTU21D;69198;44.694;37.790;2023-05-07T02:55:28;14.62;85.17
75190;HTU21D;69198;44.694;37.790;2023-05-07T02:56:30;14.65;85.06
75190;HTU21D;69198;44.694;37.790;2023-05-07T02:57:31;14.68;84.98
75190;HTU21D;69198;44.694;37.790;2023-05-07T02:58:32;14.68;84.99
75190;HTU21D;69198;44.694;37.790;2023-05-07T02:59:35;14.68;84.89
75190;HTU21D;69198;44.694;37.790;2023-05-07T03:00:36;14.67;84.84
75190;HTU21D;69198;44.694;37.790;2023-05-07T03:01:56;14.67;84.78
75190;HTU21D;69198;44.694;37.790;2023-05-07T03:02:57;14.71;84.71
75190;HTU21D;69198;44.694;37.790;2023-05-07T03:03:58;14.71;84.65
75190;HTU21D;69198;44.694;37.790;2023-05-07T03:04:59;14.74;84.58
75190;HTU21D;69198;44.694;37.790;2023-05-07T03:06:00;14.75;84.50
75190;HTU21D;69198;44.694;37.790;2023-05-07T03:07:01;14.78;84.40
75190;HTU21D;69198;44.694;37.790;2023-05-07T03:08:02;14.81;84.17
75190;HTU21D;69198;44.694;37.790;2023-05-07T03:09:04;14.80;84.17
75190;HTU21D;69198;44.694;37.790;2023-05-07T03:10:06;14.81;84.13
75190;HTU21D;69198;44.694;37.790;2023-05-07T03:11:07;14.83;84.07
75190;HTU21D;69198;44.694;37.790;2023-05-07T03:12:07;14.86;83.90
75190;HTU21D;69198;44.694;37.790;2023-05-07T03:13:08;14.88;83.90
75190;HTU21D;69198;44.694;37.790;2023-05-07T03:14:10;14.88;83.87
75190;HTU21D;69198;44.694;37.790;2023-05-07T03:15:11;14.89;83.84
75190;HTU21D;69198;44.694;37.790;2023-05-07T03:16:13;14.92;83.89
75190;HTU21D;69198;44.694;37.790;2023-05-07T03:17:14;14.94;83.73
75190;HTU21D;69198;44.694;37.790;2023-05-07T03:18:16;14.95;83.62
75190;HTU21D;69198;44.694;37.790;2023-05-07T03:19:17;14.95;83.57
75190;HTU21D;69198;44.694;37.790;2023-05-07T03:20:18;14.98;83.44
75190;HTU21D;69198;44.694;37.790;2023-05-07T03:21:20;14.98;83.30
75190;HTU21D;69198;44.694;37.790;2023-05-07T03:22:21;14.99;83.20
75190;HTU21D;69198;44.694;37.790;2023-05-07T03:23:21;15.00;83.07
75190;HTU21D;69198;44.694;37.790;2023-05-07T03:24:22;15.04;82.90
75190;HTU21D;69198;44.694;37.790;2023-05-07T03:25:23;15.04;82.78
75190;HTU21D;69198;44.694;37.790;2023-05-07T03:26:25;15.06;82.62
75190;HTU21D;69198;44.694;37.790;2023-05-07T03:27:26;15.06;82.55
75190;HTU21D;69198;44.694;37.790;2023-05-07T03:28:28;15.04;82.46
75190;HTU21D;69198;44.694;37.790;2023-05-07T03:29:34;15.04;82.39
75190;HTU21D;69198;44.694;37.790;2023-05-07T03:30:35;15.06;82.37
75190;HTU21D;69198;44.694;37.790;2023-05-07T03:31:36;15.04;82.37
75190;HTU21D;69198;44.694;37.790;2023-05-07T03:32:37;15.08;82.31
75190;HTU21D;69198;44.694;37.790;2023-05-07T03:33:56;15.08;82.09
75190;HTU21D;69198;44.694;37.790;2023-05-07T03:34:58;15.04;82.15
75190;HTU21D;69198;44.694;37.790;2023-05-07T03:35:59;15.06;82.01
75190;HTU21D;69198;44.694;37.790;2023-05-07T03:37:00;15.07;81.94
75190;HTU21D;69198;44.694;37.790;2023-05-07T03:38:01;15.09;81.88
75190;HTU21D;69198;44.694;37.790;2023-05-07T03:39:05;15.10;81.95
75190;HTU21D;69198;44.694;37.790;2023-05-07T03:40:12;15.09;81.97
75190;HTU21D;69198;44.694;37.790;2023-05-07T03:41:23;15.12;81.95
75190;HTU21D;69198;44.694;37.790;2023-05-07T03:42:24;15.13;81.83
75190;HTU21D;69198;44.694;37.790;2023-05-07T03:43:26;15.15;81.55
75190;HTU21D;69198;44.694;37.790;2023-05-07T03:44:35;15.17;81.34
75190;HTU21D;69198;44.694;37.790;2023-05-07T03:45:37;15.16;81.30
75190;HTU21D;69198;44.694;37.790;2023-05-07T03:46:49;15.15;81.35
75190;HTU21D;69198;44.694;37.790;2023-05-07T03:47:50;15.17;81.23
75190;HTU21D;69198;44.694;37.790;2023-05-07T03:48:54;15.19;80.92
75190;HTU21D;69198;44.694;37.790;2023-05-07T03:49:55;15.23;80.36
75190;HTU21D;69198;44.694;37.790;2023-05-07T03:50:59;15.25;80.24
75190;HTU21D;69198;44.694;37.790;2023-05-07T03:52:04;15.23;80.31
75190;HTU21D;69198;44.694;37.790;2023-05-07T03:53:06;15.17;80.46
75190;HTU21D;69198;44.694;37.790;2023-05-07T03:54:12;15.18;80.36
75190;HTU21D;69198;44.694;37.790;2023-05-07T03:55:17;15.16;80.27
75190;HTU21D;69198;44.694;37.790;2023-05-07T03:56:23;15.06;80.58
75190;HTU21D;69198;44.694;37.790;2023-05-07T03:57:29;14.96;81.08
75190;HTU21D;69198;44.694;37.790;2023-05-07T03:58:31;15.00;81.27
75190;HTU21D;69198;44.694;37.790;2023-05-07T03:59:36;15.08;81.03
75190;HTU21D;69198;44.694;37.790;2023-05-07T04:00:37;15.15;80.59
75190;HTU21D;69198;44.694;37.790;2023-05-07T04:01:50;15.16;80.59
75190;HTU21D;69198;44.694;37.790;2023-05-07T04:02:54;15.15;80.36
75190;HTU21D;69198;44.694;37.790;2023-05-07T04:04:00;15.08;80.66
75190;HTU21D;69198;44.694;37.790;2023-05-07T04:05:01;15.03;80.98
75190;HTU21D;69198;44.694;37.790;2023-05-07T04:06:02;14.97;81.04
75190;HTU21D;69198;44.694;37.790;2023-05-07T04:07:05;14.96;81.52
75190;HTU21D;69198;44.694;37.790;2023-05-07T04:08:12;14.94;81.09
75190;HTU21D;69198;44.694;37.790;2023-05-07T04:09:15;14.95;81.04
75190;HTU21D;69198;44.694;37.790;2023-05-07T04:10:16;14.98;81.30
75190;HTU21D;69198;44.694;37.790;2023-05-07T04:11:20;15.04;80.94
75190;HTU21D;69198;44.694;37.790;2023-05-07T04:12:21;15.07;80.63
75190;HTU21D;69198;44.694;37.790;2023-05-07T04:13:24;15.11;80.54
75190;HTU21D;69198;44.694;37.790;2023-05-07T04:14:26;15.16;80.24
75190;HTU21D;69198;44.694;37.790;2023-05-07T04:15:27;15.22;80.22
75190;HTU21D;69198;44.694;37.790;2023-05-07T04:16:28;15.22;80.00
75190;HTU21D;69198;44.694;37.790;2023-05-07T04:17:29;15.25;79.67
75190;HTU21D;69198;44.694;37.790;2023-05-07T04:18:30;15.25;79.83
75190;HTU21D;69198;44.694;37.790;2023-05-07T04:19:33;15.17;80.30
75190;HTU21D;69198;44.694;37.790;2023-05-07T04:20:34;15.10;80.52
75190;HTU21D;69198;44.694;37.790;2023-05-07T04:21:39;15.04;80.87
75190;HTU21D;69198;44.694;37.790;2023-05-07T04:22:41;15.00;80.79
75190;HTU21D;69198;44.694;37.790;2023-05-07T04:23:42;14.96;80.95
75190;HTU21D;69198;44.694;37.790;2023-05-07T04:24:45;14.93;81.14
75190;HTU21D;69198;44.694;37.790;2023-05-07T04:25:47;14.93;81.23
75190;HTU21D;69198;44.694;37.790;2023-05-07T04:27:03;14.95;81.39
75190;HTU21D;69198;44.694;37.790;2023-05-07T04:28:04;14.96;81.39
75190;HTU21D;69198;44.694;37.790;2023-05-07T04:29:05;14.97;81.52
75190;HTU21D;69198;44.694;37.790;2023-05-07T04:30:08;15.01;81.37
75190;HTU21D;69198;44.694;37.790;2023-05-07T04:31:12;15.00;81.32
75190;HTU21D;69198;44.694;37.790;2023-05-07T04:32:14;15.03;81.46
75190;HTU21D;69198;44.694;37.790;2023-05-07T04:33:16;15.13;81.30
75190;HTU21D;69198;44.694;37.790;2023-05-07T04:34:18;15.17;81.02
75190;HTU21D;69198;44.694;37.790;2023-05-07T04:35:20;15.21;80.81
75190;HTU21D;69198;44.694;37.790;2023-05-07T04:36:21;15.21;80.92
75190;HTU21D;69198;44.694;37.790;2023-05-07T04:37:27;15.23;80.44
75190;HTU21D;69198;44.694;37.790;2023-05-07T04:38:31;15.24;80.33
75190;HTU21D;69198;44.694;37.790;2023-05-07T04:39:34;15.24;80.08
75190;HTU21D;69198;44.694;37.790;2023-05-07T04:40:37;15.25;80.05
75190;HTU21D;69198;44.694;37.790;2023-05-07T04:41:38;15.26;80.11
75190;HTU21D;69198;44.694;37.790;2023-05-07T04:42:41;15.26;80.10
75190;HTU21D;69198;44.694;37.790;2023-05-07T04:43:42;15.26;80.14
75190;HTU21D;69198;44.694;37.790;2023-05-07T04:44:46;15.25;80.06
75190;HTU21D;69198;44.694;37.790;2023-05-07T04:45:47;15.22;80.13
75190;HTU21D;69198;44.694;37.790;2023-05-07T04:46:50;15.17;80.43
75190;HTU21D;69198;44.694;37.790;2023-05-07T04:47:51;15.15;80.72
75190;HTU21D;69198;44.694;37.790;2023-05-07T04:48:52;15.13;80.74
75190;HTU21D;69198;44.694;37.790;2023-05-07T04:49:53;15.10;80.81
75190;HTU21D;69198;44.694;37.790;2023-05-07T04:50:54;15.08;80.75
75190;HTU21D;69198;44.694;37.790;2023-05-07T04:51:55;15.06;80.62
75190;HTU21D;69198;44.694;37.790;2023-05-07T04:52:58;15.08;80.48
75190;HTU21D;69198;44.694;37.790;2023-05-07T04:53:59;15.08;80.56
75190;HTU21D;69198;44.694;37.790;2023-05-07T04:55:02;15.10;80.60
75190;HTU21D;69198;44.694;37.790;2023-05-07T04:56:08;15.12;80.40
75190;HTU21D;69198;44.694;37.790;2023-05-07T04:57:14;15.14;80.43
75190;HTU21D;69198;44.694;37.790;2023-05-07T04:58:17;15.18;80.58
75190;HTU21D;69198;44.694;37.790;2023-05-07T04:59:21;15.19;80.51
75190;HTU21D;69198;44.694;37.790;2023-05-07T05:00:24;15.22;80.26
75190;HTU21D;69198;44.694;37.790;2023-05-07T05:01:28;15.24;80.01
75190;HTU21D;69198;44.694;37.790;2023-05-07T05:02:29;15.25;79.95
75190;HTU21D;69198;44.694;37.790;2023-05-07T05:03:30;15.28;79.93
75190;HTU21D;69198;44.694;37.790;2023-05-07T05:04:31;15.34;79.75
75190;HTU21D;69198;44.694;37.790;2023-05-07T05:05:33;15.42;79.74
75190;HTU21D;69198;44.694;37.790;2023-05-07T05:06:34;15.47;79.54
75190;HTU21D;69198;44.694;37.790;2023-05-07T05:07:38;15.54;79.12
75190;HTU21D;69198;44.694;37.790;2023-05-07T05:08:40;15.60;78.87
75190;HTU21D;69198;44.694;37.790;2023-05-07T05:09:41;15.63;78.70
75190;HTU21D;69198;44.694;37.790;2023-05-07T05:10:42;15.67;78.56
75190;HTU21D;69198;44.694;37.790;2023-05-07T05:11:45;15.69;78.33
75190;HTU21D;69198;44.694;37.790;2023-05-07T05:12:46;15.70;78.31
75190;HTU21D;69198;44.694;37.790;2023-05-07T05:13:47;15.73;78.17
75190;HTU21D;69198;44.694;37.790;2023-05-07T05:14:53;15.73;77.68
75190;HTU21D;69198;44.694;37.790;2023-05-07T05:15:54;15.72;77.65
75190;HTU21D;69198;44.694;37.790;2023-05-07T05:16:57;15.71;77.29
75190;HTU21D;69198;44.694;37.790;2023-05-07T05:17:58;15.69;77.45
75190;HTU21D;69198;44.694;37.790;2023-05-07T05:18:59;15.68;77.53
75190;HTU21D;69198;44.694;37.790;2023-05-07T05:20:00;15.69;77.65
75190;HTU21D;69198;44.694;37.790;2023-05-07T05:21:01;15.71;77.63
75190;HTU21D;69198;44.694;37.790;2023-05-07T05:22:03;15.70;77.39
75190;HTU21D;69198;44.694;37.790;2023-05-07T05:23:05;15.70;77.45
75190;HTU21D;69198;44.694;37.790;2023-05-07T05:24:07;15.71;77.19
75190;HTU21D;69198;44.694;37.790;2023-05-07T05:25:08;15.72;77.19
75190;HTU21D;69198;44.694;37.790;2023-05-07T05:26:09;15.71;77.27
75190;HTU21D;69198;44.694;37.790;2023-05-07T05:27:10;15.75;77.24
75190;HTU21D;69198;44.694;37.790;2023-05-07T05:28:11;15.77;76.98
75190;HTU21D;69198;44.694;37.790;2023-05-07T05:29:13;15.78;76.92
75190;HTU21D;69198;44.694;37.790;2023-05-07T05:30:16;15.78;76.72
75190;HTU21D;69198;44.694;37.790;2023-05-07T05:31:20;15.80;76.43
75190;HTU21D;69198;44.694;37.790;2023-05-07T05:32:23;15.78;76.32
75190;HTU21D;69198;44.694;37.790;2023-05-07T05:33:29;15.84;76.07
75190;HTU21D;69198;44.694;37.790;2023-05-07T05:34:36;15.80;76.40
75190;HTU21D;69198;44.694;37.790;2023-05-07T05:35:39;15.82;76.14
75190;HTU21D;69198;44.694;37.790;2023-05-07T05:36:45;15.81;76.12
75190;HTU21D;69198;44.694;37.790;2023-05-07T05:37:48;15.78;76.44
75190;HTU21D;69198;44.694;37.790;2023-05-07T05:38:51;15.82;76.34
75190;HTU21D;69198;44.694;37.790;2023-05-07T05:39:53;15.83;76.56
75190;HTU21D;69198;44.694;37.790;2023-05-07T05:40:56;15.86;76.78
75190;HTU21D;69198;44.694;37.790;2023-05-07T05:41:57;15.90;76.73
75190;HTU21D;69198;44.694;37.790;2023-05-07T05:42:58;15.96;76.54
75190;HTU21D;69198;44.694;37.790;2023-05-07T05:44:00;16.02;76.24
75190;HTU21D;69198;44.694;37.790;2023-05-07T05:45:01;16.07;76.07
75190;HTU21D;69198;44.694;37.790;2023-05-07T05:46:05;16.11;76.01
75190;HTU21D;69198;44.694;37.790;2023-05-07T05:47:07;16.16;75.75
75190;HTU21D;69198;44.694;37.790;2023-05-07T05:48:08;16.24;75.53
75190;HTU21D;69198;44.694;37.790;2023-05-07T05:49:09;16.32;75.22
75190;HTU21D;69198;44.694;37.790;2023-05-07T05:50:11;16.50;74.60
75190;HTU21D;69198;44.694;37.790;2023-05-07T05:51:12;16.78;74.12
75190;HTU21D;69198;44.694;37.790;2023-05-07T05:52:13;17.00;73.49
75190;HTU21D;69198;44.694;37.790;2023-05-07T05:53:15;17.07;73.25
75190;HTU21D;69198;44.694;37.790;2023-05-07T05:54:16;17.15;73.24
75190;HTU21D;69198;44.694;37.790;2023-05-07T05:55:17;17.28;72.72
75190;HTU21D;69198;44.694;37.790;2023-05-07T05:56:19;17.29;72.08
75190;HTU21D;69198;44.694;37.790;2023-05-07T05:57:20;17.26;71.94
75190;HTU21D;69198;44.694;37.790;2023-05-07T05:58:21;17.24;71.55
75190;HTU21D;69198;44.694;37.790;2023-05-07T05:59:29;17.20;71.48
75190;HTU21D;69198;44.694;37.790;2023-05-07T06:00:32;17.17;71.42
75190;HTU21D;69198;44.694;37.790;2023-05-07T06:01:37;17.17;71.35
75190;HTU21D;69198;44.694;37.790;2023-05-07T06:02:39;17.14;71.16
75190;HTU21D;69198;44.694;37.790;2023-05-07T06:03:41;17.07;71.51
75190;HTU21D;69198;44.694;37.790;2023-05-07T06:04:47;17.07;71.22
75190;HTU21D;69198;44.694;37.790;2023-05-07T06:05:52;17.05;71.28
75190;HTU21D;69198;44.694;37.790;2023-05-07T06:06:55;17.06;71.13
75190;HTU21D;69198;44.694;37.790;2023-05-07T06:07:58;17.01;71.01
75190;HTU21D;69198;44.694;37.790;2023-05-07T06:09:03;16.96;71.45
75190;HTU21D;69198;44.694;37.790;2023-05-07T06:10:11;17.00;71.74
75190;HTU21D;69198;44.694;37.790;2023-05-07T06:11:12;17.03;71.33
75190;HTU21D;69198;44.694;37.790;2023-05-07T06:12:16;17.08;71.04
75190;HTU21D;69198;44.694;37.790;2023-05-07T06:13:17;17.14;70.97
75190;HTU21D;69198;44.694;37.790;2023-05-07T06:14:18;17.16;70.77
75190;HTU21D;69198;44.694;37.790;2023-05-07T06:15:19;17.18;70.51
75190;HTU21D;69198;44.694;37.790;2023-05-07T06:16:20;17.21;70.66
75190;HTU21D;69198;44.694;37.790;2023-05-07T06:17:21;17.26;70.32
75190;HTU21D;69198;44.694;37.790;2023-05-07T06:18:24;17.31;70.23
75190;HTU21D;69198;44.694;37.790;2023-05-07T06:19:26;17.37;69.98
75190;HTU21D;69198;44.694;37.790;2023-05-07T06:20:30;17.39;69.84
75190;HTU21D;69198;44.694;37.790;2023-05-07T06:21:33;17.40;70.05